sensor_id;sensor_type;location;lat;lon;timestamp;P1;durP1;ratioP1;P2;durP2;ratioP2
47812;SDS011;34221;45.296;9.516;2023-05-07T00:00:11;38.47;;;29.88;;
47812;SDS011;34221;45.296;9.516;2023-05-07T00:00:26;39.08;;;30.45;;
47812;SDS011;34221;45.296;9.516;2023-05-07T00:00:42;38.65;;;30.45;;
47812;SDS011;34221;45.296;9.516;2023-05-07T00:00:57;37.20;;;29.35;;
47812;SDS011;34221;45.296;9.516;2023-05-07T00:01:13;37.22;;;30.23;;
47812;SDS011;34221;45.296;9.516;2023-05-07T00:01:28;38.47;;;30.03;;
47812;SDS011;34221;45.296;9.516;2023-05-07T00:01:43;38.22;;;29.65;;
47812;SDS011;34221;45.296;9.516;2023-05-07T00:01:57;39.90;;;31.77;;
47812;SDS011;34221;45.296;9.516;2023-05-07T00:02:12;39.13;;;31.27;;
47812;SDS011;34221;45.296;9.516;2023-05-07T00:02:27;34.75;;;28.92;;
47812;SDS011;34221;45.296;9.516;2023-05-07T00:02:42;36.40;;;29.33;;
47812;SDS011;34221;45.296;9.516;2023-05-07T00:02:56;36.47;;;28.77;;
47812;SDS011;34221;45.296;9.516;2023-05-07T00:03:11;33.92;;;26.05;;
47812;SDS011;34221;45.296;9.516;2023-05-07T00:03:27;31.83;;;24.13;;
47812;SDS011;34221;45.296;9.516;2023-05-07T00:03:42;32.22;;;25.13;;
47812;SDS011;34221;45.296;9.516;2023-05-07T00:03:58;34.92;;;26.90;;
47812;SDS011;34221;45.296;9.516;2023-05-07T00:04:13;34.97;;;28.02;;
47812;SDS011;34221;45.296;9.516;2023-05-07T00:04:27;31.58;;;26.65;;
47812;SDS011;34221;45.296;9.516;2023-05-07T00:04:42;30.80;;;25.53;;
47812;SDS011;34221;45.296;9.516;2023-05-07T00:04:58;30.42;;;24.50;;
47812;SDS011;34221;45.296;9.516;2023-05-07T00:05:12;30.42;;;24.75;;
47812;SDS011;34221;45.296;9.516;2023-05-07T00:05:28;32.30;;;25.58;;
47812;SDS011;34221;45.296;9.516;2023-05-07T00:05:43;32.50;;;25.27;;
47812;SDS011;34221;45.296;9.516;2023-05-07T00:05:58;34.97;;;28.00;;
47812;SDS011;34221;45.296;9.516;2023-05-07T00:06:12;40.78;;;28.60;;
47812;SDS011;34221;45.296;9.516;2023-05-07T00:06:28;41.67;;;27.85;;
47812;SDS011;34221;45.296;9.516;2023-05-07T00:06:43;38.60;;;29.38;;
47812;SDS011;34221;45.296;9.516;2023-05-07T00:06:58;39.78;;;30.90;;
47812;SDS011;34221;45.296;9.516;2023-05-07T00:07:13;39.97;;;30.38;;
47812;SDS011;34221;45.296;9.516;2023-05-07T00:07:28;37.70;;;28.92;;
47812;SDS011;34221;45.296;9.516;2023-05-07T00:07:43;35.80;;;28.70;;
47812;SDS011;34221;45.296;9.516;2023-05-07T00:07:58;34.95;;;28.40;;
47812;SDS011;34221;45.296;9.516;2023-05-07T00:08:13;37.03;;;28.80;;
47812;SDS011;34221;45.296;9.516;2023-05-07T00:08:27;38.97;;;29.50;;
47812;SDS011;34221;45.296;9.516;2023-05-07T00:08:42;36.95;;;30.23;;
47812;SDS011;34221;45.296;9.516;2023-05-07T00:08:58;35.37;;;29.27;;
47812;SDS011;34221;45.296;9.516;2023-05-07T00:09:13;35.63;;;28.80;;
47812;SDS011;34221;45.296;9.516;2023-05-07T00:09:28;36.25;;;29.05;;
47812;SDS011;34221;45.296;9.516;2023-05-07T00:09:42;36.28;;;28.08;;
47812;SDS011;34221;45.296;9.516;2023-05-07T00:09:57;37.38;;;28.45;;
47812;SDS011;34221;45.296;9.516;2023-05-07T00:10:12;37.13;;;29.77;;
47812;SDS011;34221;45.296;9.516;2023-05-07T00:10:27;36.53;;;30.00;;
47812;SDS011;34221;45.296;9.516;2023-05-07T00:10:41;36.73;;;30.27;;
47812;SDS011;34221;45.296;9.516;2023-05-07T00:10:56;36.38;;;29.80;;
47812;SDS011;34221;45.296;9.516;2023-05-07T00:11:11;39.30;;;29.85;;
47812;SDS011;34221;45.296;9.516;2023-05-07T00:11:26;40.63;;;30.50;;
47812;SDS011;34221;45.296;9.516;2023-05-07T00:11:42;38.13;;;31.05;;
47812;SDS011;34221;45.296;9.516;2023-05-07T00:11:56;38.70;;;32.22;;
47812;SDS011;34221;45.296;9.516;2023-05-07T00:12:11;38.70;;;31.70;;
47812;SDS011;34221;45.296;9.516;2023-05-07T00:12:26;39.65;;;31.33;;
47812;SDS011;34221;45.296;9.516;2023-05-07T00:12:41;41.38;;;30.95;;
47812;SDS011;34221;45.296;9.516;2023-05-07T00:12:55;39.58;;;30.73;;
47812;SDS011;34221;45.296;9.516;2023-05-07T00:13:10;38.20;;;30.77;;
47812;SDS011;34221;45.296;9.516;2023-05-07T00:13:25;38.60;;;30.17;;
47812;SDS011;34221;45.296;9.516;2023-05-07T00:13:40;38.93;;;30.43;;
47812;SDS011;34221;45.296;9.516;2023-05-07T00:13:54;37.85;;;29.88;;
47812;SDS011;34221;45.296;9.516;2023-05-07T00:14:09;36.72;;;29.35;;
47812;SDS011;34221;45.296;9.516;2023-05-07T00:14:24;39.70;;;29.42;;
47812;SDS011;34221;45.296;9.516;2023-05-07T00:14:39;40.45;;;29.77;;
47812;SDS011;34221;45.296;9.516;2023-05-07T00:14:53;38.83;;;29.43;;
47812;SDS011;34221;45.296;9.516;2023-05-07T00:15:08;37.70;;;29.33;;
47812;SDS011;34221;45.296;9.516;2023-05-07T00:15:25;37.38;;;30.50;;
47812;SDS011;34221;45.296;9.516;2023-05-07T00:15:39;38.77;;;30.40;;
47812;SDS011;34221;45.296;9.516;2023-05-07T00:15:54;39.00;;;30.77;;
47812;SDS011;34221;45.296;9.516;2023-05-07T00:16:28;39.67;;;31.02;;
47812;SDS011;34221;45.296;9.516;2023-05-07T00:16:42;37.17;;;30.88;;
47812;SDS011;34221;45.296;9.516;2023-05-07T00:16:57;36.15;;;30.45;;
47812;SDS011;34221;45.296;9.516;2023-05-07T00:17:12;38.17;;;30.45;;
47812;SDS011;34221;45.296;9.516;2023-05-07T00:17:27;40.97;;;30.47;;
47812;SDS011;34221;45.296;9.516;2023-05-07T00:17:41;40.50;;;29.38;;
47812;SDS011;34221;45.296;9.516;2023-05-07T00:17:56;38.20;;;29.42;;
47812;SDS011;34221;45.296;9.516;2023-05-07T00:18:13;39.58;;;30.92;;
47812;SDS011;34221;45.296;9.516;2023-05-07T00:18:28;37.22;;;29.85;;
47812;SDS011;34221;45.296;9.516;2023-05-07T00:18:42;37.73;;;30.03;;
47812;SDS011;34221;45.296;9.516;2023-05-07T00:18:58;40.00;;;31.23;;
47812;SDS011;34221;45.296;9.516;2023-05-07T00:19:13;39.80;;;30.92;;
47812;SDS011;34221;45.296;9.516;2023-05-07T00:19:27;39.38;;;30.02;;
47812;SDS011;34221;45.296;9.516;2023-05-07T00:19:42;37.97;;;30.23;;
47812;SDS011;34221;45.296;9.516;2023-05-07T00:19:57;37.97;;;30.30;;
47812;SDS011;34221;45.296;9.516;2023-05-07T00:20:11;38.13;;;29.45;;
47812;SDS011;34221;45.296;9.516;2023-05-07T00:20:26;37.38;;;29.38;;
47812;SDS011;34221;45.296;9.516;2023-05-07T00:20:41;37.33;;;29.90;;
47812;SDS011;34221;45.296;9.516;2023-05-07T00:20:56;36.70;;;30.27;;
47812;SDS011;34221;45.296;9.516;2023-05-07T00:21:11;34.88;;;29.08;;
47812;SDS011;34221;45.296;9.516;2023-05-07T00:21:26;36.53;;;28.98;;
47812;SDS011;34221;45.296;9.516;2023-05-07T00:21:40;38.95;;;29.95;;
47812;SDS011;34221;45.296;9.516;2023-05-07T00:21:55;38.05;;;29.95;;
47812;SDS011;34221;45.296;9.516;2023-05-07T00:22:11;36.28;;;29.35;;
47812;SDS011;34221;45.296;9.516;2023-05-07T00:22:25;36.90;;;29.43;;
47812;SDS011;34221;45.296;9.516;2023-05-07T00:22:40;35.33;;;29.45;;
47812;SDS011;34221;45.296;9.516;2023-05-07T00:22:55;36.72;;;29.48;;
47812;SDS011;34221;45.296;9.516;2023-05-07T00:23:10;38.67;;;29.23;;
47812;SDS011;34221;45.296;9.516;2023-05-07T00:23:24;36.03;;;28.20;;
47812;SDS011;34221;45.296;9.516;2023-05-07T00:23:39;37.77;;;28.43;;
47812;SDS011;34221;45.296;9.516;2023-05-07T00:23:54;41.45;;;29.88;;
47812;SDS011;34221;45.296;9.516;2023-05-07T00:24:08;41.90;;;30.80;;
47812;SDS011;34221;45.296;9.516;2023-05-07T00:24:23;40.58;;;31.05;;
47812;SDS011;34221;45.296;9.516;2023-05-07T00:24:38;39.00;;;30.92;;
47812;SDS011;34221;45.296;9.516;2023-05-07T00:24:53;38.00;;;30.07;;
47812;SDS011;34221;45.296;9.516;2023-05-07T00:25:08;37.45;;;30.40;;
47812;SDS011;34221;45.296;9.516;2023-05-07T00:25:22;39.80;;;30.65;;
47812;SDS011;34221;45.296;9.516;2023-05-07T00:25:37;38.63;;;29.90;;
47812;SDS011;34221;45.296;9.516;2023-05-07T00:25:52;36.00;;;29.23;;
47812;SDS011;34221;45.296;9.516;2023-05-07T00:26:07;35.47;;;28.75;;
47812;SDS011;34221;45.296;9.516;2023-05-07T00:26:21;34.60;;;29.03;;
47812;SDS011;34221;45.296;9.516;2023-05-07T00:26:38;36.63;;;30.48;;
47812;SDS011;34221;45.296;9.516;2023-05-07T00:26:52;40.00;;;32.35;;
47812;SDS011;34221;45.296;9.516;2023-05-07T00:27:07;39.25;;;31.63;;
47812;SDS011;34221;45.296;9.516;2023-05-07T00:27:22;37.70;;;30.23;;
47812;SDS011;34221;45.296;9.516;2023-05-07T00:27:37;37.70;;;30.05;;
47812;SDS011;34221;45.296;9.516;2023-05-07T00:27:52;37.22;;;30.08;;
47812;SDS011;34221;45.296;9.516;2023-05-07T00:28:06;36.78;;;30.17;;
47812;SDS011;34221;45.296;9.516;2023-05-07T00:28:21;37.83;;;30.83;;
47812;SDS011;34221;45.296;9.516;2023-05-07T00:28:36;38.83;;;30.87;;
47812;SDS011;34221;45.296;9.516;2023-05-07T00:28:51;40.30;;;31.50;;
47812;SDS011;34221;45.296;9.516;2023-05-07T00:29:05;42.42;;;32.83;;
47812;SDS011;34221;45.296;9.516;2023-05-07T00:29:20;40.80;;;32.08;;
47812;SDS011;34221;45.296;9.516;2023-05-07T00:29:35;40.55;;;31.92;;
47812;SDS011;34221;45.296;9.516;2023-05-07T00:29:50;40.90;;;30.85;;
47812;SDS011;34221;45.296;9.516;2023-05-07T00:30:05;38.38;;;30.13;;
47812;SDS011;34221;45.296;9.516;2023-05-07T00:30:22;36.08;;;30.67;;
47812;SDS011;34221;45.296;9.516;2023-05-07T00:30:37;37.95;;;31.25;;
47812;SDS011;34221;45.296;9.516;2023-05-07T00:30:52;38.60;;;31.88;;
47812;SDS011;34221;45.296;9.516;2023-05-07T00:31:07;38.15;;;31.02;;
47812;SDS011;34221;45.296;9.516;2023-05-07T00:31:22;38.63;;;30.45;;
47812;SDS011;34221;45.296;9.516;2023-05-07T00:31:36;37.05;;;29.60;;
47812;SDS011;34221;45.296;9.516;2023-05-07T00:31:56;37.70;;;30.05;;
47812;SDS011;34221;45.296;9.516;2023-05-07T00:32:10;39.95;;;30.73;;
47812;SDS011;34221;45.296;9.516;2023-05-07T00:32:25;40.90;;;30.30;;
47812;SDS011;34221;45.296;9.516;2023-05-07T00:32:40;38.97;;;29.97;;
47812;SDS011;34221;45.296;9.516;2023-05-07T00:33:13;37.35;;;30.13;;
47812;SDS011;34221;45.296;9.516;2023-05-07T00:33:27;37.33;;;30.33;;
47812;SDS011;34221;45.296;9.516;2023-05-07T00:33:42;37.05;;;29.58;;
47812;SDS011;34221;45.296;9.516;2023-05-07T00:33:57;38.47;;;30.77;;
47812;SDS011;34221;45.296;9.516;2023-05-07T00:34:12;38.65;;;31.63;;
47812;SDS011;34221;45.296;9.516;2023-05-07T00:34:26;38.37;;;30.97;;
47812;SDS011;34221;45.296;9.516;2023-05-07T00:34:42;38.93;;;30.10;;
47812;SDS011;34221;45.296;9.516;2023-05-07T00:34:57;38.80;;;29.80;;
47812;SDS011;34221;45.296;9.516;2023-05-07T00:35:12;37.50;;;30.13;;
47812;SDS011;34221;45.296;9.516;2023-05-07T00:35:28;39.30;;;31.23;;
47812;SDS011;34221;45.296;9.516;2023-05-07T00:35:43;39.10;;;30.85;;
47812;SDS011;34221;45.296;9.516;2023-05-07T00:35:58;37.43;;;30.20;;
47812;SDS011;34221;45.296;9.516;2023-05-07T00:36:15;41.00;;;31.58;;
47812;SDS011;34221;45.296;9.516;2023-05-07T00:36:29;38.45;;;30.10;;
47812;SDS011;34221;45.296;9.516;2023-05-07T00:36:44;36.78;;;30.15;;
47812;SDS011;34221;45.296;9.516;2023-05-07T00:36:59;39.95;;;31.85;;
47812;SDS011;34221;45.296;9.516;2023-05-07T00:37:15;38.22;;;31.13;;
47812;SDS011;34221;45.296;9.516;2023-05-07T00:37:29;38.97;;;31.63;;
47812;SDS011;34221;45.296;9.516;2023-05-07T00:37:44;39.65;;;32.13;;
47812;SDS011;34221;45.296;9.516;2023-05-07T00:37:59;38.78;;;30.52;;
47812;SDS011;34221;45.296;9.516;2023-05-07T00:38:14;38.33;;;30.23;;
47812;SDS011;34221;45.296;9.516;2023-05-07T00:38:29;39.22;;;31.80;;
47812;SDS011;34221;45.296;9.516;2023-05-07T00:38:44;41.22;;;32.72;;
47812;SDS011;34221;45.296;9.516;2023-05-07T00:38:59;42.58;;;32.30;;
47812;SDS011;34221;45.296;9.516;2023-05-07T00:39:16;41.28;;;30.63;;
47812;SDS011;34221;45.296;9.516;2023-05-07T00:39:30;39.80;;;30.52;;
47812;SDS011;34221;45.296;9.516;2023-05-07T00:39:45;41.88;;;31.38;;
47812;SDS011;34221;45.296;9.516;2023-05-07T00:40:00;41.57;;;31.70;;
47812;SDS011;34221;45.296;9.516;2023-05-07T00:40:17;41.05;;;31.70;;
47812;SDS011;34221;45.296;9.516;2023-05-07T00:40:32;39.13;;;31.08;;
47812;SDS011;34221;45.296;9.516;2023-05-07T00:40:47;37.77;;;30.53;;
47812;SDS011;34221;45.296;9.516;2023-05-07T00:41:01;39.55;;;30.67;;
47812;SDS011;34221;45.296;9.516;2023-05-07T00:41:16;41.65;;;31.17;;
47812;SDS011;34221;45.296;9.516;2023-05-07T00:41:31;39.65;;;31.50;;
47812;SDS011;34221;45.296;9.516;2023-05-07T00:41:46;40.95;;;32.30;;
47812;SDS011;34221;45.296;9.516;2023-05-07T00:42:01;40.97;;;31.83;;
47812;SDS011;34221;45.296;9.516;2023-05-07T00:42:16;38.35;;;31.70;;
47812;SDS011;34221;45.296;9.516;2023-05-07T00:42:32;38.78;;;31.67;;
47812;SDS011;34221;45.296;9.516;2023-05-07T00:42:47;38.33;;;30.65;;
47812;SDS011;34221;45.296;9.516;2023-05-07T00:43:03;38.10;;;30.48;;
47812;SDS011;34221;45.296;9.516;2023-05-07T00:43:17;39.53;;;30.98;;
47812;SDS011;34221;45.296;9.516;2023-05-07T00:43:32;39.08;;;31.38;;
47812;SDS011;34221;45.296;9.516;2023-05-07T00:43:47;40.78;;;31.80;;
47812;SDS011;34221;45.296;9.516;2023-05-07T00:44:02;45.40;;;31.60;;
47812;SDS011;34221;45.296;9.516;2023-05-07T00:44:17;42.47;;;31.20;;
47812;SDS011;34221;45.296;9.516;2023-05-07T00:44:32;37.25;;;30.70;;
47812;SDS011;34221;45.296;9.516;2023-05-07T00:44:47;35.50;;;30.40;;
47812;SDS011;34221;45.296;9.516;2023-05-07T00:45:02;36.92;;;30.42;;
47812;SDS011;34221;45.296;9.516;2023-05-07T00:45:18;38.53;;;30.60;;
47812;SDS011;34221;45.296;9.516;2023-05-07T00:45:33;38.45;;;30.10;;
47812;SDS011;34221;45.296;9.516;2023-05-07T00:45:48;37.88;;;30.35;;
47812;SDS011;34221;45.296;9.516;2023-05-07T00:46:03;38.92;;;31.35;;
47812;SDS011;34221;45.296;9.516;2023-05-07T00:46:20;41.63;;;32.50;;
47812;SDS011;34221;45.296;9.516;2023-05-07T00:46:35;41.72;;;32.67;;
47812;SDS011;34221;45.296;9.516;2023-05-07T00:46:50;39.50;;;30.85;;
47812;SDS011;34221;45.296;9.516;2023-05-07T00:47:05;37.28;;;29.63;;
47812;SDS011;34221;45.296;9.516;2023-05-07T00:47:21;38.38;;;30.40;;
47812;SDS011;34221;45.296;9.516;2023-05-07T00:47:35;40.75;;;31.10;;
47812;SDS011;34221;45.296;9.516;2023-05-07T00:47:51;40.40;;;31.30;;
47812;SDS011;34221;45.296;9.516;2023-05-07T00:48:05;39.13;;;31.95;;
47812;SDS011;34221;45.296;9.516;2023-05-07T00:48:20;39.97;;;32.45;;
47812;SDS011;34221;45.296;9.516;2023-05-07T00:48:35;40.50;;;32.28;;
47812;SDS011;34221;45.296;9.516;2023-05-07T00:48:50;39.13;;;31.55;;
47812;SDS011;34221;45.296;9.516;2023-05-07T00:49:05;39.00;;;31.38;;
47812;SDS011;34221;45.296;9.516;2023-05-07T00:49:20;37.76;;;31.42;;
47812;SDS011;34221;45.296;9.516;2023-05-07T00:49:39;37.97;;;31.80;;
47812;SDS011;34221;45.296;9.516;2023-05-07T00:49:56;37.27;;;30.83;;
47812;SDS011;34221;45.296;9.516;2023-05-07T00:50:12;39.28;;;30.58;;
47812;SDS011;34221;45.296;9.516;2023-05-07T00:50:27;40.38;;;31.38;;
47812;SDS011;34221;45.296;9.516;2023-05-07T00:50:43;40.03;;;31.52;;
47812;SDS011;34221;45.296;9.516;2023-05-07T00:50:59;42.42;;;31.52;;
47812;SDS011;34221;45.296;9.516;2023-05-07T00:51:14;40.50;;;31.27;;
47812;SDS011;34221;45.296;9.516;2023-05-07T00:51:29;37.00;;;30.20;;
47812;SDS011;34221;45.296;9.516;2023-05-07T00:51:45;39.83;;;30.77;;
47812;SDS011;34221;45.296;9.516;2023-05-07T00:52:00;45.08;;;31.52;;
47812;SDS011;34221;45.296;9.516;2023-05-07T00:52:16;44.63;;;31.55;;
47812;SDS011;34221;45.296;9.516;2023-05-07T00:52:32;41.80;;;31.88;;
47812;SDS011;34221;45.296;9.516;2023-05-07T00:52:46;44.13;;;31.20;;
47812;SDS011;34221;45.296;9.516;2023-05-07T00:53:01;43.42;;;30.73;;
47812;SDS011;34221;45.296;9.516;2023-05-07T00:53:16;38.17;;;30.73;;
47812;SDS011;34221;45.296;9.516;2023-05-07T00:53:31;37.90;;;30.45;;
47812;SDS011;34221;45.296;9.516;2023-05-07T00:53:46;37.08;;;29.90;;
47812;SDS011;34221;45.296;9.516;2023-05-07T00:54:02;38.95;;;31.35;;
47812;SDS011;34221;45.296;9.516;2023-05-07T00:54:17;37.22;;;30.58;;
47812;SDS011;34221;45.296;9.516;2023-05-07T00:54:32;35.85;;;29.42;;
47812;SDS011;34221;45.296;9.516;2023-05-07T00:54:48;38.20;;;30.83;;
47812;SDS011;34221;45.296;9.516;2023-05-07T00:55:04;39.60;;;31.10;;
47812;SDS011;34221;45.296;9.516;2023-05-07T00:55:21;38.50;;;30.38;;
47812;SDS011;34221;45.296;9.516;2023-05-07T00:55:37;38.05;;;30.38;;
47812;SDS011;34221;45.296;9.516;2023-05-07T00:55:52;38.28;;;30.13;;
47812;SDS011;34221;45.296;9.516;2023-05-07T00:56:07;38.25;;;30.40;;
47812;SDS011;34221;45.296;9.516;2023-05-07T00:56:22;39.53;;;30.33;;
47812;SDS011;34221;45.296;9.516;2023-05-07T00:56:38;41.03;;;29.73;;
47812;SDS011;34221;45.296;9.516;2023-05-07T00:56:53;39.65;;;29.83;;
47812;SDS011;34221;45.296;9.516;2023-05-07T00:57:09;37.00;;;29.70;;
47812;SDS011;34221;45.296;9.516;2023-05-07T00:57:25;35.67;;;29.95;;
47812;SDS011;34221;45.296;9.516;2023-05-07T00:57:40;37.67;;;30.30;;
47812;SDS011;34221;45.296;9.516;2023-05-07T00:57:55;42.53;;;30.98;;
47812;SDS011;34221;45.296;9.516;2023-05-07T00:58:10;41.78;;;31.00;;
47812;SDS011;34221;45.296;9.516;2023-05-07T00:58:25;39.08;;;30.85;;
47812;SDS011;34221;45.296;9.516;2023-05-07T00:58:40;40.03;;;31.33;;
47812;SDS011;34221;45.296;9.516;2023-05-07T00:58:55;37.00;;;30.60;;
47812;SDS011;34221;45.296;9.516;2023-05-07T00:59:10;36.33;;;30.98;;
47812;SDS011;34221;45.296;9.516;2023-05-07T00:59:25;37.22;;;30.38;;
47812;SDS011;34221;45.296;9.516;2023-05-07T00:59:40;38.83;;;29.98;;
47812;SDS011;34221;45.296;9.516;2023-05-07T00:59:55;40.97;;;30.65;;
47812;SDS011;34221;45.296;9.516;2023-05-07T01:00:10;42.75;;;31.17;;
47812;SDS011;34221;45.296;9.516;2023-05-07T01:00:26;41.55;;;31.35;;
47812;SDS011;34221;45.296;9.516;2023-05-07T01:00:41;37.55;;;30.45;;
47812;SDS011;34221;45.296;9.516;2023-05-07T01:00:56;38.22;;;30.73;;
47812;SDS011;34221;45.296;9.516;2023-05-07T01:01:10;38.40;;;30.88;;
47812;SDS011;34221;45.296;9.516;2023-05-07T01:01:25;37.47;;;31.07;;
47812;SDS011;34221;45.296;9.516;2023-05-07T01:01:40;38.25;;;31.20;;
47812;SDS011;34221;45.296;9.516;2023-05-07T01:01:56;39.60;;;31.10;;
47812;SDS011;34221;45.296;9.516;2023-05-07T01:02:10;40.58;;;31.27;;
47812;SDS011;34221;45.296;9.516;2023-05-07T01:02:25;40.97;;;31.27;;
47812;SDS011;34221;45.296;9.516;2023-05-07T01:02:40;39.92;;;30.50;;
47812;SDS011;34221;45.296;9.516;2023-05-07T01:02:56;38.92;;;29.58;;
47812;SDS011;34221;45.296;9.516;2023-05-07T01:03:11;40.53;;;30.90;;
47812;SDS011;34221;45.296;9.516;2023-05-07T01:03:26;39.53;;;30.65;;
47812;SDS011;34221;45.296;9.516;2023-05-07T01:04:34;40.65;;;30.30;;
47812;SDS011;34221;45.296;9.516;2023-05-07T01:04:49;40.55;;;31.23;;
47812;SDS011;34221;45.296;9.516;2023-05-07T01:05:04;38.47;;;31.02;;
47812;SDS011;34221;45.296;9.516;2023-05-07T01:05:22;38.67;;;30.73;;
47812;SDS011;34221;45.296;9.516;2023-05-07T01:05:39;38.28;;;30.63;;
47812;SDS011;34221;45.296;9.516;2023-05-07T01:05:55;38.47;;;30.20;;
47812;SDS011;34221;45.296;9.516;2023-05-07T01:06:12;37.22;;;30.02;;
47812;SDS011;34221;45.296;9.516;2023-05-07T01:06:30;37.17;;;30.58;;
47812;SDS011;34221;45.296;9.516;2023-05-07T01:06:47;39.72;;;30.17;;
47812;SDS011;34221;45.296;9.516;2023-05-07T01:07:02;38.50;;;29.80;;
47812;SDS011;34221;45.296;9.516;2023-05-07T01:07:17;38.78;;;30.85;;
47812;SDS011;34221;45.296;9.516;2023-05-07T01:07:32;43.63;;;32.03;;
47812;SDS011;34221;45.296;9.516;2023-05-07T01:07:48;42.97;;;31.52;;
47812;SDS011;34221;45.296;9.516;2023-05-07T01:08:05;40.00;;;31.35;;
47812;SDS011;34221;45.296;9.516;2023-05-07T01:08:20;37.08;;;31.15;;
47812;SDS011;34221;45.296;9.516;2023-05-07T01:08:36;38.40;;;30.13;;
47812;SDS011;34221;45.296;9.516;2023-05-07T01:08:53;38.42;;;29.58;;
47812;SDS011;34221;45.296;9.516;2023-05-07T01:09:10;36.38;;;29.48;;
47812;SDS011;34221;45.296;9.516;2023-05-07T01:09:27;39.05;;;30.85;;
47812;SDS011;34221;45.296;9.516;2023-05-07T01:09:43;40.25;;;31.33;;
47812;SDS011;34221;45.296;9.516;2023-05-07T01:09:58;39.03;;;30.75;;
47812;SDS011;34221;45.296;9.516;2023-05-07T01:10:13;39.40;;;30.55;;
47812;SDS011;34221;45.296;9.516;2023-05-07T01:10:29;40.90;;;31.00;;
47812;SDS011;34221;45.296;9.516;2023-05-07T01:10:44;38.90;;;30.95;;
47812;SDS011;34221;45.296;9.516;2023-05-07T01:11:00;39.03;;;30.25;;
47812;SDS011;34221;45.296;9.516;2023-05-07T01:11:16;38.22;;;28.98;;
47812;SDS011;34221;45.296;9.516;2023-05-07T01:11:33;34.58;;;28.90;;
47812;SDS011;34221;45.296;9.516;2023-05-07T01:11:48;36.38;;;29.45;;
47812;SDS011;34221;45.296;9.516;2023-05-07T01:12:04;37.28;;;29.38;;
47812;SDS011;34221;45.296;9.516;2023-05-07T01:12:20;35.40;;;28.73;;
47812;SDS011;34221;45.296;9.516;2023-05-07T01:12:36;34.67;;;28.33;;
47812;SDS011;34221;45.296;9.516;2023-05-07T01:12:51;38.63;;;29.75;;
47812;SDS011;34221;45.296;9.516;2023-05-07T01:13:11;40.38;;;30.17;;
47812;SDS011;34221;45.296;9.516;2023-05-07T01:13:29;37.03;;;28.63;;
47812;SDS011;34221;45.296;9.516;2023-05-07T01:13:44;37.60;;;29.30;;
47812;SDS011;34221;45.296;9.516;2023-05-07T01:13:59;41.80;;;30.25;;
47812;SDS011;34221;45.296;9.516;2023-05-07T01:14:14;41.08;;;30.42;;
47812;SDS011;34221;45.296;9.516;2023-05-07T01:14:29;37.70;;;30.30;;
47812;SDS011;34221;45.296;9.516;2023-05-07T01:14:45;39.10;;;30.75;;
47812;SDS011;34221;45.296;9.516;2023-05-07T01:15:20;39.50;;;29.67;;
47812;SDS011;34221;45.296;9.516;2023-05-07T01:15:35;38.70;;;29.73;;
47812;SDS011;34221;45.296;9.516;2023-05-07T01:15:50;38.40;;;30.27;;
47812;SDS011;34221;45.296;9.516;2023-05-07T01:16:05;38.72;;;30.48;;
47812;SDS011;34221;45.296;9.516;2023-05-07T01:16:21;38.10;;;29.77;;
47812;SDS011;34221;45.296;9.516;2023-05-07T01:16:36;36.17;;;29.17;;
47812;SDS011;34221;45.296;9.516;2023-05-07T01:16:51;35.90;;;29.50;;
47812;SDS011;34221;45.296;9.516;2023-05-07T01:17:09;37.47;;;29.88;;
47812;SDS011;34221;45.296;9.516;2023-05-07T01:17:24;35.83;;;29.30;;
47812;SDS011;34221;45.296;9.516;2023-05-07T01:17:39;35.38;;;28.85;;
47812;SDS011;34221;45.296;9.516;2023-05-07T01:18:00;36.42;;;29.65;;
47812;SDS011;34221;45.296;9.516;2023-05-07T01:18:20;37.67;;;30.05;;
47812;SDS011;34221;45.296;9.516;2023-05-07T01:18:36;38.45;;;30.80;;
47812;SDS011;34221;45.296;9.516;2023-05-07T01:18:51;39.33;;;31.13;;
47812;SDS011;34221;45.296;9.516;2023-05-07T01:19:06;39.75;;;30.33;;
47812;SDS011;34221;45.296;9.516;2023-05-07T01:19:22;37.10;;;29.88;;
47812;SDS011;34221;45.296;9.516;2023-05-07T01:19:37;35.85;;;29.65;;
47812;SDS011;34221;45.296;9.516;2023-05-07T01:19:52;36.17;;;29.67;;
47812;SDS011;34221;45.296;9.516;2023-05-07T01:20:07;36.22;;;29.50;;
47812;SDS011;34221;45.296;9.516;2023-05-07T01:20:24;38.20;;;30.42;;
47812;SDS011;34221;45.296;9.516;2023-05-07T01:20:41;39.30;;;31.45;;
47812;SDS011;34221;45.296;9.516;2023-05-07T01:20:57;38.10;;;30.67;;
47812;SDS011;34221;45.296;9.516;2023-05-07T01:21:15;36.95;;;29.80;;
47812;SDS011;34221;45.296;9.516;2023-05-07T01:21:32;38.58;;;30.48;;
47812;SDS011;34221;45.296;9.516;2023-05-07T01:21:49;38.13;;;29.45;;
47812;SDS011;34221;45.296;9.516;2023-05-07T01:22:12;40.17;;;30.73;;
47812;SDS011;34221;45.296;9.516;2023-05-07T01:22:36;37.60;;;30.55;;
47812;SDS011;34221;45.296;9.516;2023-05-07T01:22:52;39.58;;;31.10;;
47812;SDS011;34221;45.296;9.516;2023-05-07T01:23:08;38.28;;;31.13;;
47812;SDS011;34221;45.296;9.516;2023-05-07T01:23:25;36.30;;;29.77;;
47812;SDS011;34221;45.296;9.516;2023-05-07T01:23:41;38.65;;;29.77;;
47812;SDS011;34221;45.296;9.516;2023-05-07T01:23:57;39.78;;;30.42;;
47812;SDS011;34221;45.296;9.516;2023-05-07T01:24:12;37.83;;;30.60;;
47812;SDS011;34221;45.296;9.516;2023-05-07T01:24:26;37.13;;;30.58;;
47812;SDS011;34221;45.296;9.516;2023-05-07T01:24:41;38.00;;;30.38;;
47812;SDS011;34221;45.296;9.516;2023-05-07T01:24:57;36.97;;;29.50;;
47812;SDS011;34221;45.296;9.516;2023-05-07T01:25:14;36.38;;;28.70;;
47812;SDS011;34221;45.296;9.516;2023-05-07T01:25:34;40.85;;;30.30;;
47812;SDS011;34221;45.296;9.516;2023-05-07T01:25:53;39.75;;;29.83;;
47812;SDS011;34221;45.296;9.516;2023-05-07T01:26:10;39.47;;;30.50;;
47812;SDS011;34221;45.296;9.516;2023-05-07T01:26:25;37.58;;;31.38;;
47812;SDS011;34221;45.296;9.516;2023-05-07T01:26:40;38.35;;;31.10;;
47812;SDS011;34221;45.296;9.516;2023-05-07T01:26:57;40.53;;;30.83;;
47812;SDS011;34221;45.296;9.516;2023-05-07T01:27:12;39.88;;;30.98;;
47812;SDS011;34221;45.296;9.516;2023-05-07T01:27:27;37.10;;;30.33;;
47812;SDS011;34221;45.296;9.516;2023-05-07T01:28:02;36.20;;;29.63;;
47812;SDS011;34221;45.296;9.516;2023-05-07T01:28:20;38.60;;;29.73;;
47812;SDS011;34221;45.296;9.516;2023-05-07T01:28:36;39.35;;;30.33;;
47812;SDS011;34221;45.296;9.516;2023-05-07T01:28:50;38.67;;;30.08;;
47812;SDS011;34221;45.296;9.516;2023-05-07T01:29:05;37.75;;;30.08;;
47812;SDS011;34221;45.296;9.516;2023-05-07T01:29:21;38.22;;;30.52;;
47812;SDS011;34221;45.296;9.516;2023-05-07T01:29:36;37.72;;;29.65;;
47812;SDS011;34221;45.296;9.516;2023-05-07T01:29:51;36.13;;;29.60;;
47812;SDS011;34221;45.296;9.516;2023-05-07T01:30:06;36.20;;;30.02;;
47812;SDS011;34221;45.296;9.516;2023-05-07T01:30:27;37.22;;;30.70;;
47812;SDS011;34221;45.296;9.516;2023-05-07T01:30:43;37.30;;;30.90;;
47812;SDS011;34221;45.296;9.516;2023-05-07T01:31:02;38.92;;;31.00;;
47812;SDS011;34221;45.296;9.516;2023-05-07T01:31:18;39.10;;;30.77;;
47812;SDS011;34221;45.296;9.516;2023-05-07T01:31:34;35.70;;;29.70;;
47812;SDS011;34221;45.296;9.516;2023-05-07T01:31:50;37.13;;;29.75;;
47812;SDS011;34221;45.296;9.516;2023-05-07T01:32:06;37.97;;;29.95;;
47812;SDS011;34221;45.296;9.516;2023-05-07T01:32:24;37.63;;;29.75;;